sensor_id;sensor_type;location;lat;lon;timestamp;temperature;humidity
2391;DHT22;22957;50.824;4.360;2023-05-07T00:02:02;18.10;99.90
2391;DHT22;22957;50.824;4.360;2023-05-07T00:04:29;18.10;99.90
2391;DHT22;22957;50.824;4.360;2023-05-07T00:07:01;18.10;99.90
2391;DHT22;22957;50.824;4.360;2023-05-07T00:09:26;18.20;99.90
2391;DHT22;22957;50.824;4.360;2023-05-07T00:11:52;18.20;99.90
2391;DHT22;22957;50.824;4.360;2023-05-07T00:14:18;18.50;99.90
2391;DHT22;22957;50.824;4.360;2023-05-07T00:16:44;18.40;99.90
2391;DHT22;22957;50.824;4.360;2023-05-07T00:19:09;18.10;99.90
2391;DHT22;22957;50.824;4.360;2023-05-07T00:21:35;18.10;99.90
2391;DHT22;22957;50.824;4.360;2023-05-07T00:24:01;18.10;99.90
2391;DHT22;22957;50.824;4.360;2023-05-07T00:26:26;18.10;99.90
2391;DHT22;22957;50.824;4.360;2023-05-07T00:28:52;18.30;99.90
2391;DHT22;22957;50.824;4.360;2023-05-07T00:31:18;18.10;99.90
2391;DHT22;22957;50.824;4.360;2023-05-07T00:33:43;18.40;99.90
2391;DHT22;22957;50.824;4.360;2023-05-07T00:36:09;18.50;99.90
2391;DHT22;22957;50.824;4.360;2023-05-07T00:38:35;18.10;99.90
2391;DHT22;22957;50.824;4.360;2023-05-07T00:41:00;18.40;99.90
2391;DHT22;22957;50.824;4.360;2023-05-07T00:43:27;18.20;99.90
2391;DHT22;22957;50.824;4.360;2023-05-07T00:45:53;18.10;99.90
2391;DHT22;22957;50.824;4.360;2023-05-07T00:48:19;18.40;99.90
2391;DHT22;22957;50.824;4.360;2023-05-07T00:50:45;18.40;99.90
2391;DHT22;22957;50.824;4.360;2023-05-07T00:53:12;18.50;99.90
2391;DHT22;22957;50.824;4.360;2023-05-07T00:55:38;18.30;99.90
2391;DHT22;22957;50.824;4.360;2023-05-07T00:58:04;18.20;99.90
2391;DHT22;22957;50.824;4.360;2023-05-07T01:00:31;18.00;99.90
2391;DHT22;22957;50.824;4.360;2023-05-07T01:02:57;17.80;99.90
2391;DHT22;22957;50.824;4.360;2023-05-07T01:05:23;17.80;99.90
2391;DHT22;22957;50.824;4.360;2023-05-07T01:07:50;18.00;99.90
2391;DHT22;22957;50.824;4.360;2023-05-07T01:10:17;18.20;99.90
2391;DHT22;22957;50.824;4.360;2023-05-07T01:12:43;18.20;99.90
2391;DHT22;22957;50.824;4.360;2023-05-07T01:15:10;18.30;99.90
2391;DHT22;22957;50.824;4.360;2023-05-07T01:17:36;18.30;99.90
2391;DHT22;22957;50.824;4.360;2023-05-07T01:20:04;18.40;99.90
2391;DHT22;22957;50.824;4.360;2023-05-07T01:22:35;18.30;99.90
2391;DHT22;22957;50.824;4.360;2023-05-07T01:25:03;18.40;99.90
2391;DHT22;22957;50.824;4.360;2023-05-07T01:27:29;18.50;99.90
2391;DHT22;22957;50.824;4.360;2023-05-07T01:29:54;18.30;99.90
2391;DHT22;22957;50.824;4.360;2023-05-07T01:32:38;18.00;99.90
2391;DHT22;22957;50.824;4.360;2023-05-07T01:35:08;17.90;99.90
2391;DHT22;22957;50.824;4.360;2023-05-07T01:37:35;17.90;99.90
2391;DHT22;22957;50.824;4.360;2023-05-07T01:40:02;18.00;99.90
2391;DHT22;22957;50.824;4.360;2023-05-07T01:42:29;18.00;99.90
2391;DHT22;22957;50.824;4.360;2023-05-07T01:44:55;18.00;99.90
2391;DHT22;22957;50.824;4.360;2023-05-07T01:47:21;18.00;99.90
2391;DHT22;22957;50.824;4.360;2023-05-07T01:49:47;18.00;99.90
2391;DHT22;22957;50.824;4.360;2023-05-07T01:52:13;18.00;99.90
2391;DHT22;22957;50.824;4.360;2023-05-07T01:54:38;18.00;99.90
2391;DHT22;22957;50.824;4.360;2023-05-07T01:57:04;18.00;99.90
2391;DHT22;22957;50.824;4.360;2023-05-07T01:59:29;17.70;99.90
2391;DHT22;22957;50.824;4.360;2023-05-07T02:01:55;17.40;99.90
2391;DHT22;22957;50.824;4.360;2023-05-07T02:04:21;17.60;99.90
2391;DHT22;22957;50.824;4.360;2023-05-07T02:06:46;17.40;99.90
2391;DHT22;22957;50.824;4.360;2023-05-07T02:09:13;17.40;99.90
2391;DHT22;22957;50.824;4.360;2023-05-07T02:11:40;17.60;99.90
2391;DHT22;22957;50.824;4.360;2023-05-07T02:14:06;17.40;99.90
2391;DHT22;22957;50.824;4.360;2023-05-07T02:16:31;17.50;99.90
2391;DHT22;22957;50.824;4.360;2023-05-07T02:18:57;17.60;99.90
2391;DHT22;22957;50.824;4.360;2023-05-07T02:21:24;17.70;99.90
2391;DHT22;22957;50.824;4.360;2023-05-07T02:23:50;17.60;99.90
2391;DHT22;22957;50.824;4.360;2023-05-07T02:26:16;17.70;99.90
2391;DHT22;22957;50.824;4.360;2023-05-07T02:28:41;17.50;99.90
2391;DHT22;22957;50.824;4.360;2023-05-07T02:31:07;17.40;99.90
2391;DHT22;22957;50.824;4.360;2023-05-07T02:33:33;17.80;99.90
2391;DHT22;22957;50.824;4.360;2023-05-07T02:36:07;17.90;99.90
2391;DHT22;22957;50.824;4.360;2023-05-07T02:38:34;17.60;99.90
2391;DHT22;22957;50.824;4.360;2023-05-07T02:40:59;17.60;99.90
2391;DHT22;22957;50.824;4.360;2023-05-07T02:43:25;17.50;99.90
2391;DHT22;22957;50.824;4.360;2023-05-07T02:46:01;17.40;99.90
2391;DHT22;22957;50.824;4.360;2023-05-07T02:48:27;17.40;99.90
2391;DHT22;22957;50.824;4.360;2023-05-07T02:50:52;17.50;99.90
2391;DHT22;22957;50.824;4.360;2023-05-07T02:53:18;17.40;99.90
2391;DHT22;22957;50.824;4.360;2023-05-07T02:55:43;16.90;99.90
2391;DHT22;22957;50.824;4.360;2023-05-07T02:58:09;17.20;99.90
2391;DHT22;22957;50.824;4.360;2023-05-07T03:00:35;17.30;99.90
2391;DHT22;22957;50.824;4.360;2023-05-07T03:03:00;17.30;99.90
2391;DHT22;22957;50.824;4.360;2023-05-07T03:05:26;17.20;99.90
2391;DHT22;22957;50.824;4.360;2023-05-07T03:07:51;17.20;99.90
2391;DHT22;22957;50.824;4.360;2023-05-07T03:10:17;17.40;99.90
2391;DHT22;22957;50.824;4.360;2023-05-07T03:12:43;17.50;99.90
2391;DHT22;22957;50.824;4.360;2023-05-07T03:15:09;17.40;99.90
2391;DHT22;22957;50.824;4.360;2023-05-07T03:17:36;17.30;99.90
2391;DHT22;22957;50.824;4.360;2023-05-07T03:20:02;17.40;99.90
2391;DHT22;22957;50.824;4.360;2023-05-07T03:22:28;17.60;99.90
2391;DHT22;22957;50.824;4.360;2023-05-07T03:24:54;17.50;99.90
2391;DHT22;22957;50.824;4.360;2023-05-07T03:27:19;17.40;99.90
2391;DHT22;22957;50.824;4.360;2023-05-07T03:29:45;17.40;99.90
2391;DHT22;22957;50.824;4.360;2023-05-07T03:32:10;17.70;99.90
2391;DHT22;22957;50.824;4.360;2023-05-07T03:34:36;17.70;99.90
2391;DHT22;22957;50.824;4.360;2023-05-07T03:37:01;17.60;99.90
2391;DHT22;22957;50.824;4.360;2023-05-07T03:39:27;17.50;99.90
2391;DHT22;22957;50.824;4.360;2023-05-07T03:41:53;17.80;99.90
2391;DHT22;22957;50.824;4.360;2023-05-07T03:44:18;17.50;99.90
2391;DHT22;22957;50.824;4.360;2023-05-07T03:46:44;17.60;99.90
2391;DHT22;22957;50.824;4.360;2023-05-07T03:49:09;17.40;99.90
2391;DHT22;22957;50.824;4.360;2023-05-07T03:51:35;17.60;99.90
2391;DHT22;22957;50.824;4.360;2023-05-07T03:54:01;17.80;99.90
2391;DHT22;22957;50.824;4.360;2023-05-07T03:56:27;18.00;99.90
2391;DHT22;22957;50.824;4.360;2023-05-07T03:58:53;18.00;99.90
2391;DHT22;22957;50.824;4.360;2023-05-07T04:01:19;17.90;99.90
2391;DHT22;22957;50.824;4.360;2023-05-07T04:03:45;17.50;99.90
2391;DHT22;22957;50.824;4.360;2023-05-07T04:06:10;17.70;99.90
2391;DHT22;22957;50.824;4.360;2023-05-07T04:08:36;17.90;99.90
2391;DHT22;22957;50.824;4.360;2023-05-07T04:11:01;17.80;99.90
2391;DHT22;22957;50.824;4.360;2023-05-07T04:13:27;17.90;99.90
2391;DHT22;22957;50.824;4.360;2023-05-07T04:15:54;18.00;99.90
2391;DHT22;22957;50.824;4.360;2023-05-07T04:18:20;18.10;99.90
2391;DHT22;22957;50.824;4.360;2023-05-07T04:20:47;18.30;99.90
2391;DHT22;22957;50.824;4.360;2023-05-07T04:23:12;18.30;99.90
2391;DHT22;22957;50.824;4.360;2023-05-07T04:25:38;18.30;99.90
2391;DHT22;22957;50.824;4.360;2023-05-07T04:28:04;18.50;99.90
2391;DHT22;22957;50.824;4.360;2023-05-07T04:30:29;18.30;99.90
2391;DHT22;22957;50.824;4.360;2023-05-07T04:32:55;18.40;99.90
2391;DHT22;22957;50.824;4.360;2023-05-07T04:35:21;18.30;99.90
2391;DHT22;22957;50.824;4.360;2023-05-07T04:37:47;18.40;99.90
2391;DHT22;22957;50.824;4.360;2023-05-07T04:40:13;18.20;99.90
2391;DHT22;22957;50.824;4.360;2023-05-07T04:42:38;18.10;99.90
2391;DHT22;22957;50.824;4.360;2023-05-07T04:45:04;18.30;99.90
2391;DHT22;22957;50.824;4.360;2023-05-07T04:47:30;18.30;99.90
2391;DHT22;22957;50.824;4.360;2023-05-07T04:49:57;18.40;99.90
2391;DHT22;22957;50.824;4.360;2023-05-07T04:52:22;18.70;99.90
2391;DHT22;22957;50.824;4.360;2023-05-07T04:54:48;18.80;99.90
2391;DHT22;22957;50.824;4.360;2023-05-07T04:57:13;19.00;99.90
2391;DHT22;22957;50.824;4.360;2023-05-07T04:59:39;19.10;99.90
2391;DHT22;22957;50.824;4.360;2023-05-07T05:02:05;19.30;99.90
2391;DHT22;22957;50.824;4.360;2023-05-07T05:04:31;19.30;99.90
2391;DHT22;22957;50.824;4.360;2023-05-07T05:06:56;19.60;99.90
2391;DHT22;22957;50.824;4.360;2023-05-07T05:09:22;19.70;99.90
2391;DHT22;22957;50.824;4.360;2023-05-07T05:11:47;20.00;99.90
2391;DHT22;22957;50.824;4.360;2023-05-07T05:14:13;20.10;99.90
2391;DHT22;22957;50.824;4.360;2023-05-07T05:16:39;20.10;99.90
2391;DHT22;22957;50.824;4.360;2023-05-07T05:19:04;20.00;99.90
2391;DHT22;22957;50.824;4.360;2023-05-07T05:21:31;20.10;99.90
2391;DHT22;22957;50.824;4.360;2023-05-07T05:23:57;20.10;99.90
2391;DHT22;22957;50.824;4.360;2023-05-07T05:26:23;20.10;99.90
2391;DHT22;22957;50.824;4.360;2023-05-07T05:28:49;20.10;99.90
2391;DHT22;22957;50.824;4.360;2023-05-07T05:31:16;20.00;99.90
2391;DHT22;22957;50.824;4.360;2023-05-07T05:33:42;19.90;99.90
2391;DHT22;22957;50.824;4.360;2023-05-07T05:36:09;19.70;99.90
2391;DHT22;22957;50.824;4.360;2023-05-07T05:38:36;19.80;99.90
2391;DHT22;22957;50.824;4.360;2023-05-07T05:41:01;19.90;99.90
2391;DHT22;22957;50.824;4.360;2023-05-07T05:43:27;19.80;99.90
2391;DHT22;22957;50.824;4.360;2023-05-07T05:45:53;19.80;99.90
2391;DHT22;22957;50.824;4.360;2023-05-07T05:48:18;19.80;99.90
2391;DHT22;22957;50.824;4.360;2023-05-07T05:50:44;19.90;99.90
2391;DHT22;22957;50.824;4.360;2023-05-07T05:53:10;19.80;99.90
2391;DHT22;22957;50.824;4.360;2023-05-07T05:55:35;19.70;99.90
2391;DHT22;22957;50.824;4.360;2023-05-07T05:58:01;19.70;99.90
2391;DHT22;22957;50.824;4.360;2023-05-07T06:00:27;19.50;99.90
2391;DHT22;22957;50.824;4.360;2023-05-07T06:02:53;19.70;99.90
2391;DHT22;22957;50.824;4.360;2023-05-07T06:05:18;19.50;99.90
2391;DHT22;22957;50.824;4.360;2023-05-07T06:07:44;19.20;99.90
2391;DHT22;22957;50.824;4.360;2023-05-07T06:10:10;19.30;99.90
2391;DHT22;22957;50.824;4.360;2023-05-07T06:12:35;19.20;99.90
2391;DHT22;22957;50.824;4.360;2023-05-07T06:15:01;19.30;99.90
2391;DHT22;22957;50.824;4.360;2023-05-07T06:17:27;19.10;99.90
2391;DHT22;22957;50.824;4.360;2023-05-07T06:19:52;19.20;99.90
2391;DHT22;22957;50.824;4.360;2023-05-07T06:22:18;19.20;99.90
2391;DHT22;22957;50.824;4.360;2023-05-07T06:24:44;19.10;99.90
2391;DHT22;22957;50.824;4.360;2023-05-07T06:27:09;18.70;99.90
2391;DHT22;22957;50.824;4.360;2023-05-07T06:29:35;18.70;99.90
2391;DHT22;22957;50.824;4.360;2023-05-07T06:32:13;18.80;99.90
2391;DHT22;22957;50.824;4.360;2023-05-07T06:34:40;18.60;99.90
2391;DHT22;22957;50.824;4.360;2023-05-07T06:37:06;18.50;99.90
2391;DHT22;22957;50.824;4.360;2023-05-07T06:39:32;18.60;99.90
2391;DHT22;22957;50.824;4.360;2023-05-07T06:42:00;18.50;99.90
2391;DHT22;22957;50.824;4.360;2023-05-07T06:44:27;18.50;99.90
2391;DHT22;22957;50.824;4.360;2023-05-07T06:46:52;18.40;99.90
2391;DHT22;22957;50.824;4.360;2023-05-07T06:49:18;18.50;99.90
2391;DHT22;22957;50.824;4.360;2023-05-07T06:51:44;18.60;99.90
2391;DHT22;22957;50.824;4.360;2023-05-07T06:54:09;18.50;99.90
2391;DHT22;22957;50.824;4.360;2023-05-07T06:56:35;18.50;99.90
2391;DHT22;22957;50.824;4.360;2023-05-07T06:59:02;18.70;99.90
2391;DHT22;22957;50.824;4.360;2023-05-07T07:01:28;18.60;99.90
2391;DHT22;22957;50.824;4.360;2023-05-07T07:03:53;18.50;99.90
2391;DHT22;22957;50.824;4.360;2023-05-07T07:06:19;18.50;99.90
2391;DHT22;22957;50.824;4.360;2023-05-07T07:08:45;18.30;99.90
2391;DHT22;22957;50.824;4.360;2023-05-07T07:11:11;18.10;99.90
2391;DHT22;22957;50.824;4.360;2023-05-07T07:13:37;18.10;99.90
2391;DHT22;22957;50.824;4.360;2023-05-07T07:16:03;18.20;99.90
2391;DHT22;22957;50.824;4.360;2023-05-07T07:18:29;18.30;99.90
2391;DHT22;22957;50.824;4.360;2023-05-07T07:20:54;18.30;99.90
2391;DHT22;22957;50.824;4.360;2023-05-07T07:23:20;18.20;99.90
2391;DHT22;22957;50.824;4.360;2023-05-07T07:25:46;18.40;99.90
2391;DHT22;22957;50.824;4.360;2023-05-07T07:28:12;18.30;99.90
2391;DHT22;22957;50.824;4.360;2023-05-07T07:30:38;18.50;99.90
2391;DHT22;22957;50.824;4.360;2023-05-07T07:33:04;18.40;99.90
2391;DHT22;22957;50.824;4.360;2023-05-07T07:35:33;18.30;99.90
2391;DHT22;22957;50.824;4.360;2023-05-07T07:37:59;18.30;99.90
2391;DHT22;22957;50.824;4.360;2023-05-07T07:40:25;18.40;99.90
2391;DHT22;22957;50.824;4.360;2023-05-07T07:42:51;18.50;99.90
2391;DHT22;22957;50.824;4.360;2023-05-07T07:45:17;18.60;99.90
2391;DHT22;22957;50.824;4.360;2023-05-07T07:47:43;18.60;99.90
2391;DHT22;22957;50.824;4.360;2023-05-07T07:50:09;18.50;99.90
2391;DHT22;22957;50.824;4.360;2023-05-07T07:52:34;18.70;99.90
2391;DHT22;22957;50.824;4.360;2023-05-07T07:55:00;18.60;99.90
2391;DHT22;22957;50.824;4.360;2023-05-07T07:57:26;18.70;99.90
2391;DHT22;22957;50.824;4.360;2023-05-07T07:59:51;18.90;99.90
2391;DHT22;22957;50.824;4.360;2023-05-07T08:02:17;18.80;99.90
2391;DHT22;22957;50.824;4.360;2023-05-07T08:04:43;18.70;99.90
2391;DHT22;22957;50.824;4.360;2023-05-07T08:07:12;18.80;99.90
2391;DHT22;22957;50.824;4.360;2023-05-07T08:09:38;18.80;99.90
2391;DHT22;22957;50.824;4.360;2023-05-07T08:12:05;18.80;99.90
2391;DHT22;22957;50.824;4.360;2023-05-07T08:14:31;18.80;99.90
2391;DHT22;22957;50.824;4.360;2023-05-07T08:16:57;18.70;99.90
2391;DHT22;22957;50.824;4.360;2023-05-07T08:19:22;18.50;99.90
2391;DHT22;22957;50.824;4.360;2023-05-07T08:21:48;18.60;99.90
2391;DHT22;22957;50.824;4.360;2023-05-07T08:24:14;18.40;99.90
2391;DHT22;22957;50.824;4.360;2023-05-07T08:26:40;18.40;99.90
2391;DHT22;22957;50.824;4.360;2023-05-07T08:29:06;18.40;99.90
2391;DHT22;22957;50.824;4.360;2023-05-07T08:31:32;18.50;99.90
2391;DHT22;22957;50.824;4.360;2023-05-07T08:33:57;18.60;99.90
2391;DHT22;22957;50.824;4.360;2023-05-07T08:36:23;18.60;99.90
2391;DHT22;22957;50.824;4.360;2023-05-07T08:38:49;18.40;99.90
2391;DHT22;22957;50.824;4.360;2023-05-07T08:41:15;18.50;99.90
2391;DHT22;22957;50.824;4.360;2023-05-07T08:43:41;18.40;99.90
2391;DHT22;22957;50.824;4.360;2023-05-07T08:46:12;18.50;99.90
2391;DHT22;22957;50.824;4.360;2023-05-07T08:48:41;18.60;99.90
2391;DHT22;22957;50.824;4.360;2023-05-07T08:51:06;18.50;99.90
2391;DHT22;22957;50.824;4.360;2023-05-07T08:53:33;18.80;99.90
2391;DHT22;22957;50.824;4.360;2023-05-07T08:55:59;18.70;99.90
2391;DHT22;22957;50.824;4.360;2023-05-07T08:58:25;18.50;99.90
2391;DHT22;22957;50.824;4.360;2023-05-07T09:00:51;18.20;99.90
2391;DHT22;22957;50.824;4.360;2023-05-07T09:03:18;18.50;99.90
2391;DHT22;22957;50.824;4.360;2023-05-07T09:05:43;18.80;99.90
2391;DHT22;22957;50.824;4.360;2023-05-07T09:08:10;18.80;99.90
2391;DHT22;22957;50.824;4.360;2023-05-07T09:10:35;18.80;99.90
2391;DHT22;22957;50.824;4.360;2023-05-07T09:13:02;18.80;99.90
2391;DHT22;22957;50.824;4.360;2023-05-07T09:15:28;19.00;99.90
2391;DHT22;22957;50.824;4.360;2023-05-07T09:17:54;19.00;99.90
2391;DHT22;22957;50.824;4.360;2023-05-07T09:20:20;19.20;99.90
2391;DHT22;22957;50.824;4.360;2023-05-07T09:22:45;19.10;99.90
2391;DHT22;22957;50.824;4.360;2023-05-07T09:25:11;18.90;99.90
2391;DHT22;22957;50.824;4.360;2023-05-07T09:27:37;19.10;99.90
2391;DHT22;22957;50.824;4.360;2023-05-07T09:30:04;19.20;99.90
2391;DHT22;22957;50.824;4.360;2023-05-07T09:32:35;19.30;99.90
2391;DHT22;22957;50.824;4.360;2023-05-07T09:35:01;19.40;99.90
2391;DHT22;22957;50.824;4.360;2023-05-07T09:37:27;19.60;99.90
2391;DHT22;22957;50.824;4.360;2023-05-07T09:39:54;19.70;99.90
2391;DHT22;22957;50.824;4.360;2023-05-07T09:42:24;19.80;99.90
2391;DHT22;22957;50.824;4.360;2023-05-07T09:44:52;19.70;99.90
2391;DHT22;22957;50.824;4.360;2023-05-07T09:47:24;19.70;99.90
2391;DHT22;22957;50.824;4.360;2023-05-07T09:49:50;19.80;99.90
2391;DHT22;22957;50.824;4.360;2023-05-07T09:52:19;19.60;99.90
2391;DHT22;22957;50.824;4.360;2023-05-07T09:54:47;19.80;99.90
2391;DHT22;22957;50.824;4.360;2023-05-07T09:57:15;19.80;99.90
2391;DHT22;22957;50.824;4.360;2023-05-07T09:59:43;19.90;99.90
2391;DHT22;22957;50.824;4.360;2023-05-07T10:02:09;19.90;99.90
2391;DHT22;22957;50.824;4.360;2023-05-07T10:04:36;19.90;99.90
2391;DHT22;22957;50.824;4.360;2023-05-07T10:07:03;19.60;99.90
2391;DHT22;22957;50.824;4.360;2023-05-07T10:09:30;19.50;99.90
2391;DHT22;22957;50.824;4.360;2023-05-07T10:11:56;19.40;99.90
2391;DHT22;22957;50.824;4.360;2023-05-07T10:14:23;19.40;99.90
2391;DHT22;22957;50.824;4.360;2023-05-07T10:16:49;19.40;99.90
2391;DHT22;22957;50.824;4.360;2023-05-07T10:19:15;19.40;99.90
2391;DHT22;22957;50.824;4.360;2023-05-07T10:21:51;19.30;99.90
2391;DHT22;22957;50.824;4.360;2023-05-07T10:24:26;19.60;99.90
2391;DHT22;22957;50.824;4.360;2023-05-07T10:26:53;19.60;99.90
2391;DHT22;22957;50.824;4.360;2023-05-07T10:34:43;19.60;99.90
2391;DHT22;22957;50.824;4.360;2023-05-07T10:37:10;19.90;99.90
2391;DHT22;22957;50.824;4.360;2023-05-07T10:39:37;19.60;99.90
2391;DHT22;22957;50.824;4.360;2023-05-07T10:42:10;19.60;99.90
2391;DHT22;22957;50.824;4.360;2023-05-07T10:44:36;19.50;99.90
2391;DHT22;22957;50.824;4.360;2023-05-07T10:47:17;19.70;99.90
2391;DHT22;22957;50.824;4.360;2023-05-07T10:52:16;19.80;99.90
2391;DHT22;22957;50.824;4.360;2023-05-07T10:54:43;20.30;99.90
2391;DHT22;22957;50.824;4.360;2023-05-07T10:59:56;19.70;99.90
2391;DHT22;22957;50.824;4.360;2023-05-07T11:02:21;19.90;99.90
2391;DHT22;22957;50.824;4.360;2023-05-07T11:05:18;19.80;99.90
2391;DHT22;22957;50.824;4.360;2023-05-07T11:07:57;20.60;99.90
2391;DHT22;22957;50.824;4.360;2023-05-07T11:10:23;20.40;99.90
2391;DHT22;22957;50.824;4.360;2023-05-07T11:12:50;20.40;99.90
2391;DHT22;22957;50.824;4.360;2023-05-07T11:15:36;20.20;99.90
2391;DHT22;22957;50.824;4.360;2023-05-07T11:18:02;20.20;99.90
2391;DHT22;22957;50.824;4.360;2023-05-07T11:26:04;20.30;99.90
2391;DHT22;22957;50.824;4.360;2023-05-07T11:28:31;20.30;99.90
2391;DHT22;22957;50.824;4.360;2023-05-07T11:30:57;20.20;99.90
2391;DHT22;22957;50.824;4.360;2023-05-07T11:33:23;19.70;99.90
2391;DHT22;22957;50.824;4.360;2023-05-07T11:35:53;19.80;99.90
2391;DHT22;22957;50.824;4.360;2023-05-07T11:38:19;20.10;99.90
2391;DHT22;22957;50.824;4.360;2023-05-07T11:40:51;20.30;99.90
2391;DHT22;22957;50.824;4.360;2023-05-07T11:43:17;20.40;99.90
2391;DHT22;22957;50.824;4.360;2023-05-07T11:45:44;20.60;99.90
2391;DHT22;22957;50.824;4.360;2023-05-07T11:48:12;20.40;99.90
2391;DHT22;22957;50.824;4.360;2023-05-07T11:51:05;20.20;99.90
2391;DHT22;22957;50.824;4.360;2023-05-07T11:53:41;20.80;99.90
2391;DHT22;22957;50.824;4.360;2023-05-07T11:56:12;20.70;99.90
2391;DHT22;22957;50.824;4.360;2023-05-07T11:58:40;21.00;99.90
2391;DHT22;22957;50.824;4.360;2023-05-07T12:01:08;20.90;99.90
2391;DHT22;22957;50.824;4.360;2023-05-07T12:03:35;21.30;99.90
2391;DHT22;22957;50.824;4.360;2023-05-07T12:06:01;21.00;99.90
2391;DHT22;22957;50.824;4.360;2023-05-07T12:08:27;21.20;99.90
2391;DHT22;22957;50.824;4.360;2023-05-07T12:10:54;21.30;99.90
2391;DHT22;22957;50.824;4.360;2023-05-07T12:13:20;21.50;99.90
2391;DHT22;22957;50.824;4.360;2023-05-07T12:15:53;21.50;99.90
2391;DHT22;22957;50.824;4.360;2023-05-07T12:18:21;21.40;99.90
2391;DHT22;22957;50.824;4.360;2023-05-07T12:20:47;21.10;99.90
2391;DHT22;22957;50.824;4.360;2023-05-07T12:23:13;21.20;99.90
2391;DHT22;22957;50.824;4.360;2023-05-07T12:25:41;22.00;99.90
2391;DHT22;22957;50.824;4.360;2023-05-07T12:28:13;21.50;99.90
2391;DHT22;22957;50.824;4.360;2023-05-07T12:30:42;21.70;99.90
2391;DHT22;22957;50.824;4.360;2023-05-07T12:33:08;22.00;99.90
2391;DHT22;22957;50.824;4.360;2023-05-07T12:35:39;21.90;99.90
2391;DHT22;22957;50.824;4.360;2023-05-07T12:38:09;21.70;99.90
2391;DHT22;22957;50.824;4.360;2023-05-07T12:40:42;21.90;99.90
2391;DHT22;22957;50.824;4.360;2023-05-07T12:43:18;21.70;99.90
2391;DHT22;22957;50.824;4.360;2023-05-07T12:45:45;21.60;99.90
2391;DHT22;22957;50.824;4.360;2023-05-07T12:48:12;21.60;99.90
2391;DHT22;22957;50.824;4.360;2023-05-07T12:50:38;21.60;99.90
2391;DHT22;22957;50.824;4.360;2023-05-07T12:53:04;21.60;99.90
2391;DHT22;22957;50.824;4.360;2023-05-07T12:55:44;22.00;99.90
2391;DHT22;22957;50.824;4.360;2023-05-07T12:58:17;22.00;99.90
2391;DHT22;22957;50.824;4.360;2023-05-07T13:00:43;22.10;99.90
2391;DHT22;22957;50.824;4.360;2023-05-07T13:03:09;22.10;99.90
2391;DHT22;22957;50.824;4.360;2023-05-07T13:05:35;22.00;99.90
2391;DHT22;22957;50.824;4.360;2023-05-07T13:08:00;22.00;99.90
2391;DHT22;22957;50.824;4.360;2023-05-07T13:10:27;22.20;99.90
2391;DHT22;22957;50.824;4.360;2023-05-07T13:12:52;22.20;99.90
2391;DHT22;22957;50.824;4.360;2023-05-07T13:15:18;22.40;99.90
2391;DHT22;22957;50.824;4.360;2023-05-07T13:17:44;22.20;99.90
2391;DHT22;22957;50.824;4.360;2023-05-07T13:20:11;22.10;99.90
2391;DHT22;22957;50.824;4.360;2023-05-07T13:22:38;22.10;99.90
2391;DHT22;22957;50.824;4.360;2023-05-07T13:25:04;22.10;99.90
2391;DHT22;22957;50.824;4.360;2023-05-07T13:27:30;22.00;99.90
2391;DHT22;22957;50.824;4.360;2023-05-07T13:29:56;22.10;99.90
2391;DHT22;22957;50.824;4.360;2023-05-07T13:32:22;22.20;99.90
2391;DHT22;22957;50.824;4.360;2023-05-07T13:34:48;22.00;99.90
2391;DHT22;22957;50.824;4.360;2023-05-07T13:37:13;21.80;99.90
2391;DHT22;22957;50.824;4.360;2023-05-07T13:39:39;21.60;99.90
2391;DHT22;22957;50.824;4.360;2023-05-07T13:42:04;21.70;99.90
2391;DHT22;22957;50.824;4.360;2023-05-07T13:44:30;21.90;99.90
2391;DHT22;22957;50.824;4.360;2023-05-07T13:46:56;21.70;99.90
2391;DHT22;22957;50.824;4.360;2023-05-07T13:49:21;21.40;99.90
2391;DHT22;22957;50.824;4.360;2023-05-07T13:51:47;21.40;99.90
2391;DHT22;22957;50.824;4.360;2023-05-07T13:54:12;21.70;99.90
2391;DHT22;22957;50.824;4.360;2023-05-07T13:56:38;21.90;99.90
2391;DHT22;22957;50.824;4.360;2023-05-07T13:59:04;21.60;99.90
2391;DHT22;22957;50.824;4.360;2023-05-07T14:01:31;21.80;99.90
2391;DHT22;22957;50.824;4.360;2023-05-07T14:03:56;21.60;99.90
2391;DHT22;22957;50.824;4.360;2023-05-07T14:06:25;21.70;99.90
2391;DHT22;22957;50.824;4.360;2023-05-07T14:08:51;21.30;99.90
2391;DHT22;22957;50.824;4.360;2023-05-07T14:11:16;21.20;99.90
2391;DHT22;22957;50.824;4.360;2023-05-07T14:13:42;21.40;99.90
2391;DHT22;22957;50.824;4.360;2023-05-07T14:16:08;21.60;99.90
2391;DHT22;22957;50.824;4.360;2023-05-07T14:18:33;21.30;99.90
2391;DHT22;22957;50.824;4.360;2023-05-07T14:21:00;21.40;99.90
2391;DHT22;22957;50.824;4.360;2023-05-07T14:23:26;21.50;99.90
2391;DHT22;22957;50.824;4.360;2023-05-07T14:25:52;22.10;99.90
2391;DHT22;22957;50.824;4.360;2023-05-07T14:28:18;21.60;99.90
2391;DHT22;22957;50.824;4.360;2023-05-07T14:30:44;21.40;99.90
2391;DHT22;22957;50.824;4.360;2023-05-07T14:33:10;21.70;99.90
2391;DHT22;22957;50.824;4.360;2023-05-07T14:35:35;21.70;99.90
2391;DHT22;22957;50.824;4.360;2023-05-07T14:38:01;22.00;99.90
2391;DHT22;22957;50.824;4.360;2023-05-07T14:40:27;21.70;99.90
2391;DHT22;22957;50.824;4.360;2023-05-07T14:42:52;21.60;99.90
2391;DHT22;22957;50.824;4.360;2023-05-07T14:45:18;22.20;99.90
2391;DHT22;22957;50.824;4.360;2023-05-07T14:47:43;21.90;99.90
2391;DHT22;22957;50.824;4.360;2023-05-07T14:50:09;21.80;99.90
2391;DHT22;22957;50.824;4.360;2023-05-07T14:52:35;21.90;99.90
2391;DHT22;22957;50.824;4.360;2023-05-07T14:55:01;21.80;99.90
2391;DHT22;22957;50.824;4.360;2023-05-07T14:57:26;21.60;99.90
2391;DHT22;22957;50.824;4.360;2023-05-07T14:59:52;21.70;99.90
2391;DHT22;22957;50.824;4.360;2023-05-07T15:02:18;21.50;99.90
2391;DHT22;22957;50.824;4.360;2023-05-07T15:04:43;21.80;99.90
2391;DHT22;22957;50.824;4.360;2023-05-07T15:07:15;21.80;99.90
2391;DHT22;22957;50.824;4.360;2023-05-07T15:09:42;21.80;99.90
2391;DHT22;22957;50.824;4.360;2023-05-07T15:12:08;21.90;99.90
2391;DHT22;22957;50.824;4.360;2023-05-07T15:14:34;21.70;99.90
2391;DHT22;22957;50.824;4.360;2023-05-07T15:17:00;21.60;99.90
2391;DHT22;22957;50.824;4.360;2023-05-07T15:19:25;21.50;99.90
2391;DHT22;22957;50.824;4.360;2023-05-07T15:21:55;21.60;99.90
2391;DHT22;22957;50.824;4.360;2023-05-07T15:24:22;21.40;99.90
2391;DHT22;22957;50.824;4.360;2023-05-07T15:26:48;21.40;99.90
2391;DHT22;22957;50.824;4.360;2023-05-07T15:29:14;21.50;99.90
2391;DHT22;22957;50.824;4.360;2023-05-07T15:31:39;21.50;99.90
2391;DHT22;22957;50.824;4.360;2023-05-07T15:34:05;21.50;99.90
2391;DHT22;22957;50.824;4.360;2023-05-07T15:36:31;21.80;99.90
2391;DHT22;22957;50.824;4.360;2023-05-07T15:38:57;21.60;99.90
2391;DHT22;22957;50.824;4.360;2023-05-07T15:41:22;21.30;99.90
2391;DHT22;22957;50.824;4.360;2023-05-07T15:43:50;21.40;99.90
2391;DHT22;22957;50.824;4.360;2023-05-07T15:46:21;21.40;99.90
2391;DHT22;22957;50.824;4.360;2023-05-07T15:48:47;21.70;99.90
2391;DHT22;22957;50.824;4.360;2023-05-07T15:51:13;21.50;99.90
2391;DHT22;22957;50.824;4.360;2023-05-07T15:53:39;21.70;99.90
2391;DHT22;22957;50.824;4.360;2023-05-07T15:56:05;21.60;99.90
2391;DHT22;22957;50.824;4.360;2023-05-07T15:58:31;21.50;99.90